Terminal Aerodrome Forecast
Issued by NWS

Home | Current Version | Previous Version | Text Only | Print | Product List | Glossary On
Versions: 1 2 3 4 5 6 7 8 9 10 11 12 13 14 15
000
FTUS45 KABQ 231132
TAFTCC
TAF
KTCC 231132Z 2312/2412 04009KT P6SM FEW070
     FM231700 08010KT P6SM VCSH BKN070
     FM232200 10009KT P6SM VCTS BKN080CB
     FM240100 06008KT P6SM SCT100=

USA.gov is the U.S. government's official web portal to all federal, state and local government web resources and services.